Time;durP1;ratioP1;P1;durP2;ratioP2;P2;SDS_P1;SDS_P2;PMS_P1;PMS_P2;Temp;Humidity;BMP_temperature;BMP_pressure;BME280_temperature;BME280_humidity;BME280_pressure;Samples;Min_cycle;Max_cycle;Signal;HPM_P1;HPM_P2
2022/04/12 00:00:01;;;;;;;317.87;96.80;;;;;;;6.96;56.65;100161.19;342320;28;1521;-71
2022/04/12 00:00:12;;;;;;;314.95;95.88;;;;;;;6.95;57.39;100150.78;343685;28;1344;-72
2022/04/12 00:00:22;;;;;;;314.98;95.88;;;;;;;6.96;56.85;100153.38;339831;28;1318;-72
2022/04/12 00:00:33;;;;;;;316.77;96.30;;;;;;;6.96;56.61;100153.38;341760;28;1804;-72
2022/04/12 00:00:43;;;;;;;317.00;94.72;;;;;;;6.95;57.11;100153.41;341299;28;1332;-72
2022/04/12 00:00:54;;;;;;;315.60;94.17;;;;;;;6.92;56.73;100149.13;344844;28;1220;-72
2022/04/12 00:01:05;;;;;;;314.80;94.22;;;;;;;6.91;56.97;100150.03;343259;28;1215;-71
2022/04/12 00:01:15;;;;;;;314.58;95.50;;;;;;;6.92;56.74;100156.94;341073;28;1789;-71
2022/04/12 00:01:26;;;;;;;314.17;95.37;;;;;;;6.93;56.55;100150.00;340833;28;1378;-71
2022/04/12 00:01:36;;;;;;;314.15;95.43;;;;;;;6.97;56.79;100156.84;342180;28;1321;-71
2022/04/12 00:01:47;;;;;;;314.07;94.70;;;;;;;6.98;56.90;100149.00;343892;28;790;-72
2022/04/12 00:01:57;;;;;;;314.33;95.72;;;;;;;6.99;56.52;100149.84;343473;28;1091;-72
2022/04/12 00:02:08;;;;;;;314.10;95.60;;;;;;;7.03;56.74;100151.53;343836;28;1940;-72
2022/04/12 00:02:19;;;;;;;313.60;96.13;;;;;;;7.05;56.53;100148.91;346563;28;1000;-72
2022/04/12 00:02:29;;;;;;;313.38;95.88;;;;;;;7.06;56.83;100145.41;344346;28;2150;-72
2022/04/12 00:02:40;;;;;;;314.57;97.17;;;;;;;7.06;56.75;100150.59;343453;28;1310;-71
2022/04/12 00:02:50;;;;;;;314.52;96.32;;;;;;;7.04;56.26;100154.97;342347;28;1228;-71
2022/04/12 00:03:00;;;;;;;314.17;96.03;;;;;;;7.03;56.57;100154.13;341022;28;1358;-71
2022/04/12 00:03:11;;;;;;;313.13;94.15;;;;;;;7.01;56.46;100154.16;339451;29;947;-71
2022/04/12 00:03:22;;;;;;;314.05;94.10;;;;;;;7.03;56.53;100150.66;343720;28;928;-71
2022/04/12 00:03:32;;;;;;;315.00;94.10;;;;;;;7.00;56.62;100147.22;343754;28;876;-71
2022/04/12 00:03:43;;;;;;;314.55;94.85;;;;;;;6.99;56.86;100150.72;343486;28;1754;-71
2022/04/12 00:03:53;;;;;;;312.43;95.13;;;;;;;6.95;56.30;100153.41;343027;28;805;-71
2022/04/12 00:04:04;;;;;;;312.83;96.78;;;;;;;6.94;56.46;100157.75;340521;28;873;-71
2022/04/12 00:04:14;;;;;;;314.45;99.18;;;;;;;6.96;56.71;100155.13;337838;29;873;-71
2022/04/12 00:04:25;;;;;;;314.90;99.60;;;;;;;7.00;56.49;100156.78;341150;28;1443;-71
2022/04/12 00:04:35;;;;;;;314.13;97.63;;;;;;;6.98;56.52;100149.00;343556;28;1213;-71
2022/04/12 00:04:47;;;;;;;314.97;95.20;;;;;;;6.95;56.90;100148.19;343550;28;1665;-71
2022/04/12 00:04:57;;;;;;;314.73;93.30;;;;;;;6.95;56.69;100153.41;343637;28;881;-71
2022/04/12 00:05:11;;;;;;;315.40;94.07;;;;;;;6.92;56.53;100154.34;342241;28;1366;-71
2022/04/12 00:05:21;;;;;;;314.92;94.65;;;;;;;6.89;57.04;100154.38;339227;28;2203;-71
2022/04/12 00:05:33;;;;;;;312.88;93.28;;;;;;;6.87;56.83;100144.91;339962;28;1454;-71
2022/04/12 00:05:43;;;;;;;312.45;93.07;;;;;;;6.87;56.76;100152.69;340894;28;913;-71
2022/04/12 00:05:54;;;;;;;313.08;93.40;;;;;;;6.88;56.92;100152.66;340596;28;1919;-71
2022/04/12 00:06:05;;;;;;;315.00;95.18;;;;;;;6.88;56.63;100151.81;343439;28;1943;-71
2022/04/12 00:06:15;;;;;;;313.73;94.57;;;;;;;6.88;56.57;100150.06;343662;28;1121;-71
2022/04/12 00:06:25;;;;;;;313.80;95.07;;;;;;;6.89;56.56;100150.94;344862;28;930;-71
2022/04/12 00:06:36;;;;;;;313.37;94.40;;;;;;;6.91;57.00;100151.75;342117;28;1294;-71
2022/04/12 00:06:47;;;;;;;316.92;96.78;;;;;;;6.92;56.64;100153.47;343828;28;1179;-72
2022/04/12 00:06:57;;;;;;;315.40;95.93;;;;;;;6.97;56.70;100156.84;342180;28;1047;-71
2022/04/12 00:07:07;;;;;;;314.05;94.82;;;;;;;7.00;56.98;100156.78;342984;28;957;-71
2022/04/12 00:07:18;;;;;;;312.73;92.97;;;;;;;7.00;56.70;100155.03;343676;28;1517;-71
2022/04/12 00:07:28;;;;;;;314.52;93.45;;;;;;;7.03;56.76;100148.06;343573;28;939;-71
2022/04/12 00:07:42;;;;;;;314.33;93.10;;;;;;;7.04;56.77;100149.78;341207;28;826;-71
2022/04/12 00:07:52;;;;;;;312.73;93.57;;;;;;;7.06;56.44;100150.59;340992;28;1301;-71
2022/04/12 00:08:03;;;;;;;313.03;94.93;;;;;;;7.06;56.75;100156.66;341984;28;1189;-71
2022/04/12 00:08:14;;;;;;;313.48;95.60;;;;;;;7.07;56.55;100153.19;343617;28;995;-71
2022/04/12 00:08:24;;;;;;;313.88;96.18;;;;;;;7.05;56.67;100154.97;344932;28;861;-71
2022/04/12 00:08:34;;;;;;;314.37;96.00;;;;;;;7.03;56.18;100153.25;343036;28;1477;-71
2022/04/12 00:08:45;;;;;;;316.00;97.68;;;;;;;6.99;56.23;100150.72;343365;28;2358;-71
2022/04/12 00:08:55;;;;;;;315.90;97.43;;;;;;;7.01;56.41;100154.16;341035;28;1189;-71
2022/04/12 00:09:06;;;;;;;314.83;98.55;;;;;;;7.02;56.60;100149.81;341349;28;1434;-71
2022/04/12 00:09:16;;;;;;;314.40;99.63;;;;;;;7.04;56.61;100157.59;340612;28;949;-71
2022/04/12 00:09:26;;;;;;;315.92;101.05;;;;;;;7.03;56.53;100151.53;342677;28;1411;-71
2022/04/12 00:09:37;;;;;;;314.33;98.80;;;;;;;7.04;56.75;100149.78;345130;28;934;-71
2022/04/12 00:09:47;;;;;;;315.77;98.27;;;;;;;7.01;56.63;100146.34;343474;28;1258;-71
2022/04/12 00:09:57;;;;;;;313.85;95.38;;;;;;;7.04;56.67;100147.19;344781;28;819;-71
2022/04/12 00:10:08;;;;;;;314.70;96.23;;;;;;;6.97;56.48;100144.69;342423;28;1502;-71
2022/04/12 00:10:18;;;;;;;313.40;95.28;;;;;;;6.96;56.30;100150.75;342244;28;1455;-72
2022/04/12 00:10:29;;;;;;;313.70;95.00;;;;;;;6.95;56.14;100151.66;342258;28;1813;-71
2022/04/12 00:10:40;;;;;;;313.13;94.40;;;;;;;6.95;56.47;100151.66;343690;28;892;-71
2022/04/12 00:10:51;;;;;;;311.70;93.10;;;;;;;6.96;56.50;100145.56;340883;28;1616;-71
2022/04/12 00:11:01;;;;;;;312.92;94.50;;;;;;;6.96;56.61;100150.75;340791;28;1237;-71
2022/04/12 00:11:11;;;;;;;314.30;95.20;;;;;;;6.90;56.55;100143.09;340476;28;1213;-71
2022/04/12 00:11:22;;;;;;;313.58;95.75;;;;;;;6.90;56.28;100147.44;341949;28;1258;-71
2022/04/12 00:11:32;;;;;;;314.57;95.77;;;;;;;6.86;56.32;100149.25;343357;28;1201;-71
2022/04/12 00:11:42;;;;;;;315.50;96.67;;;;;;;6.87;56.48;100152.69;343708;28;910;-71
2022/04/12 00:11:53;;;;;;;316.15;95.72;;;;;;;6.88;56.27;100151.81;342418;28;877;-71
2022/04/12 00:12:03;;;;;;;313.90;94.73;;;;;;;6.90;56.50;100153.50;340652;28;1458;-71
2022/04/12 00:12:15;;;;;;;312.80;93.72;;;;;;;6.91;56.53;100151.75;342224;28;1432;-71
2022/04/12 00:12:26;;;;;;;312.52;93.18;;;;;;;6.89;56.43;100154.38;340917;28;1345;-71
2022/04/12 00:12:37;;;;;;;312.50;92.47;;;;;;;6.88;56.51;100154.41;343314;28;2137;-71
2022/04/12 00:12:48;;;;;;;311.55;92.10;;;;;;;6.86;56.30;100159.66;339703;29;943;-71
2022/04/12 00:12:59;;;;;;;310.73;92.60;;;;;;;6.85;56.38;100160.53;340724;28;928;-71
2022/04/12 00:13:09;;;;;;;312.33;94.10;;;;;;;6.86;56.49;100148.38;340994;28;850;-71
2022/04/12 00:13:20;;;;;;;313.87;95.40;;;;;;;6.88;56.42;100152.66;343685;28;1504;-71
2022/04/12 00:13:30;;;;;;;314.52;96.22;;;;;;;6.91;56.57;100149.16;343524;28;1313;-71
2022/04/12 00:13:41;;;;;;;312.13;95.13;;;;;;;6.91;56.22;100152.63;343723;28;1469;-71
2022/04/12 00:13:51;;;;;;;312.75;94.85;;;;;;;6.90;56.61;100158.72;343274;28;817;-72
2022/04/12 00:14:03;;;;;;;313.60;95.80;;;;;;;6.92;56.88;100156.09;343941;28;1263;-71
2022/04/12 00:14:13;;;;;;;316.60;97.85;;;;;;;6.93;57.03;100156.03;344850;28;1328;-71
2022/04/12 00:14:24;;;;;;;314.98;98.18;;;;;;;6.96;56.59;100150.75;340872;28;1240;-71
2022/04/12 00:14:34;;;;;;;313.00;95.70;;;;;;;6.99;56.88;100145.50;343618;28;1413;-71
2022/04/12 00:14:45;;;;;;;312.33;96.03;;;;;;;6.98;56.69;100149.00;340863;28;1235;-71
2022/04/12 00:14:55;;;;;;;311.27;93.47;;;;;;;6.98;56.76;100143.78;343258;28;1909;-71
2022/04/12 00:15:06;;;;;;;312.50;94.43;;;;;;;7.02;56.88;100149.81;342906;28;1433;-71
2022/04/12 00:15:17;;;;;;;311.58;94.35;;;;;;;7.04;56.54;100147.19;340755;28;1123;-71
2022/04/12 00:15:27;;;;;;;313.20;96.40;;;;;;;7.05;56.42;100144.53;343606;28;1295;-71
2022/04/12 00:15:38;;;;;;;312.58;95.30;;;;;;;7.04;56.18;100152.38;340693;28;1698;-71
2022/04/12 00:15:49;;;;;;;312.98;94.40;;;;;;;7.03;56.35;100153.25;342223;28;842;-71
2022/04/12 00:15:59;;;;;;;311.57;93.53;;;;;;;7.01;56.09;100151.53;342156;28;1226;-71
2022/04/12 00:16:09;;;;;;;313.13;94.55;;;;;;;7.03;56.23;100148.06;346119;28;1220;-71
2022/04/12 00:16:20;;;;;;;313.73;95.80;;;;;;;7.04;56.46;100148.03;346073;28;1717;-72
2022/04/12 00:16:30;;;;;;;314.55;96.68;;;;;;;6.97;56.26;100157.69;343462;28;1354;-72
2022/04/12 00:16:41;;;;;;;313.05;94.30;;;;;;;6.92;56.19;100146.53;344813;28;1368;-71
2022/04/12 00:19:02;;;;;;;312.47;93.43;;;;;;;6.90;56.25;100148.31;344858;28;1674;-71
2022/04/12 00:19:04;;;;;;;310.60;89.97;;;;;;;6.79;56.74;100147.63;343197;28;1289;-70
2022/04/12 00:19:14;;;;;;;312.83;94.70;;;;;;;6.83;56.42;100153.63;340455;28;848;-72
2022/04/12 00:19:25;;;;;;;314.00;97.13;;;;;;;6.84;56.34;100145.81;340843;28;1211;-72
2022/04/12 00:19:35;;;;;;;314.80;95.47;;;;;;;6.86;56.59;100146.63;343754;28;935;-72
2022/04/12 00:19:46;;;;;;;314.50;94.33;;;;;;;6.89;56.42;100149.19;341160;28;2693;-71
2022/04/12 00:19:57;;;;;;;315.38;94.32;;;;;;;6.92;56.35;100145.69;340647;28;1184;-71
2022/04/12 00:20:09;;;;;;;315.40;95.10;;;;;;;6.90;56.26;100145.69;342114;28;1553;-71
2022/04/12 00:20:20;;;;;;;314.90;96.32;;;;;;;6.90;56.44;100144.84;341293;28;1131;-71
2022/04/12 00:20:30;;;;;;;314.47;96.27;;;;;;;6.89;56.20;100141.38;339463;29;1361;-71
2022/04/12 00:20:41;;;;;;;315.42;96.32;;;;;;;6.92;56.23;100149.13;339753;29;912;-71
2022/04/12 00:20:53;;;;;;;314.67;95.43;;;;;;;6.92;56.39;100156.94;341936;28;1161;-72
2022/04/12 00:21:03;;;;;;;312.80;94.10;;;;;;;6.89;56.08;100146.59;342063;28;1327;-71
2022/04/12 00:21:13;;;;;;;312.88;94.85;;;;;;;6.86;56.44;100145.78;340872;28;1530;-71
2022/04/12 00:21:24;;;;;;;313.20;94.93;;;;;;;6.84;56.48;100145.81;343369;28;1323;-71
2022/04/12 00:21:35;;;;;;;314.17;95.23;;;;;;;6.82;56.21;100144.97;342246;28;1312;-71
2022/04/12 00:21:45;;;;;;;314.33;94.78;;;;;;;6.81;56.40;100151.06;342774;28;1559;-71
2022/04/12 00:21:56;;;;;;;314.70;94.83;;;;;;;6.81;56.26;100156.25;343372;28;1299;-71
2022/04/12 00:22:06;;;;;;;314.98;94.32;;;;;;;6.82;56.49;100144.09;343595;28;1946;-71
2022/04/12 00:22:16;;;;;;;314.67;94.97;;;;;;;6.84;56.56;100144.94;341983;28;1205;-71
2022/04/12 00:22:27;;;;;;;314.13;94.20;;;;;;;6.82;56.25;100144.97;341016;28;1370;-71
2022/04/12 00:22:39;;;;;;;312.85;93.10;;;;;;;6.79;56.35;100147.63;341046;28;924;-71
2022/04/12 00:22:49;;;;;;;313.00;92.03;;;;;;;6.82;56.10;100147.56;342270;28;1275;-71
2022/04/12 00:23:00;;;;;;;315.10;92.63;;;;;;;6.83;56.49;100141.47;345940;28;1496;-71
2022/04/12 00:23:12;;;;;;;314.23;92.37;;;;;;;6.81;56.07;100156.25;344898;28;1739;-71
2022/04/12 00:23:22;;;;;;;313.42;91.85;;;;;;;6.80;56.50;100154.53;344794;28;1457;-71
2022/04/12 00:23:33;;;;;;;312.48;93.28;;;;;;;6.82;56.44;100152.78;340767;28;1269;-71
2022/04/12 00:23:43;;;;;;;314.23;95.03;;;;;;;6.85;56.71;100149.25;341797;28;1349;-72
2022/04/12 00:23:54;;;;;;;314.10;95.47;;;;;;;6.84;56.31;100151.00;342679;28;1236;-71
2022/04/12 00:24:05;;;;;;;314.87;96.07;;;;;;;6.83;56.24;100144.09;342798;28;1338;-71
2022/04/12 00:24:16;;;;;;;314.67;97.97;;;;;;;6.84;56.50;100153.59;344683;28;891;-71
2022/04/12 00:24:26;;;;;;;314.73;97.93;;;;;;;6.82;56.35;100157.13;346509;28;1366;-71
2022/04/12 00:24:36;;;;;;;313.52;96.00;;;;;;;6.80;56.61;100153.69;342855;28;1767;-71
2022/04/12 00:24:47;;;;;;;313.47;94.87;;;;;;;6.77;56.51;100152.00;338980;29;1725;-71
2022/04/12 00:25:00;;;;;;;313.20;94.15;;;;;;;6.78;56.56;100155.44;339464;29;916;-71
2022/04/12 00:25:10;;;;;;;313.30;93.13;;;;;;;6.77;56.52;100159.78;339353;28;1706;-71
2022/04/12 00:25:22;;;;;;;312.42;91.13;;;;;;;6.78;56.59;100151.09;340974;28;1142;-71
2022/04/12 00:25:32;;;;;;;312.58;91.68;;;;;;;6.82;56.47;100155.38;339533;28;796;-71
2022/04/12 00:25:44;;;;;;;313.47;93.87;;;;;;;6.83;56.39;100154.50;343680;28;1364;-71
2022/04/12 00:25:54;;;;;;;313.35;94.43;;;;;;;6.81;56.44;100151.06;342132;28;948;-71
2022/04/12 00:26:05;;;;;;;311.40;92.68;;;;;;;6.80;56.60;100158.88;346130;28;1930;-72
2022/04/12 00:26:16;;;;;;;311.90;92.37;;;;;;;6.79;56.87;100157.16;342278;28;937;-71
2022/04/12 00:26:26;;;;;;;313.88;92.78;;;;;;;6.78;56.34;100151.09;342179;28;956;-71
2022/04/12 00:26:37;;;;;;;314.35;93.82;;;;;;;6.79;56.86;100152.81;342972;28;1545;-71
2022/04/12 00:26:49;;;;;;;315.07;94.87;;;;;;;6.80;56.54;100153.69;342489;28;916;-71
2022/04/12 00:26:59;;;;;;;314.40;96.44;;;;;;;6.76;56.49;100145.06;342000;28;1108;-71
2022/04/12 00:27:10;;;;;;;313.90;95.90;;;;;;;6.75;56.29;100151.16;342143;28;1957;-71
2022/04/12 00:27:20;;;;;;;313.47;95.07;;;;;;;6.77;56.76;100153.72;340621;28;1367;-71
2022/04/12 00:27:31;;;;;;;314.27;93.85;;;;;;;6.76;56.63;100146.81;343390;28;1252;-71
2022/04/12 00:27:41;;;;;;;314.67;94.37;;;;;;;6.73;57.02;100158.13;343546;28;1191;-71
2022/04/12 00:27:54;;;;;;;313.67;93.88;;;;;;;6.72;56.67;100152.94;340949;28;935;-71
2022/04/12 00:28:05;;;;;;;313.42;93.13;;;;;;;6.74;56.85;100153.78;342817;28;1750;-71
2022/04/12 00:28:15;;;;;;;314.02;93.95;;;;;;;6.71;56.68;100154.69;342160;28;892;-71
2022/04/12 00:28:27;;;;;;;313.83;93.37;;;;;;;6.70;56.94;100155.56;339506;29;1103;-71
2022/04/12 00:28:38;;;;;;;314.25;93.53;;;;;;;6.71;57.06;100154.69;339594;29;865;-71
2022/04/12 00:28:48;;;;;;;316.02;93.75;;;;;;;6.72;56.50;100151.22;341697;28;1284;-71
2022/04/12 00:28:59;;;;;;;317.15;95.60;;;;;;;6.75;56.55;100151.16;344617;28;1298;-71
2022/04/12 00:29:09;;;;;;;315.83;96.67;;;;;;;6.79;57.01;100157.16;342929;28;1625;-71
2022/04/12 00:29:20;;;;;;;316.13;98.65;;;;;;;6.81;56.54;100150.19;338655;28;2028;-71
2022/04/12 00:29:32;;;;;;;315.43;98.80;;;;;;;6.80;56.37;100149.34;343105;28;1586;-71
2022/04/12 00:29:42;;;;;;;314.08;96.82;;;;;;;6.79;56.97;100158.03;343224;28;1652;-71
2022/04/12 00:29:53;;;;;;;312.40;94.47;;;;;;;6.78;56.85;100150.25;345701;28;1239;-71
2022/04/12 00:30:05;;;;;;;312.65;93.57;;;;;;;6.78;56.66;100151.09;341581;28;1594;-71
2022/04/12 00:30:15;;;;;;;314.06;93.94;;;;;;;6.77;56.67;100149.38;340754;28;1016;-71
2022/04/12 00:30:27;;;;;;;315.40;95.17;;;;;;;6.79;56.98;100150.22;341990;28;1229;-71
2022/04/12 00:30:37;;;;;;;314.48;95.30;;;;;;;6.83;56.93;100148.44;342165;28;925;-71
2022/04/12 00:30:48;;;;;;;315.10;95.13;;;;;;;6.79;56.47;100150.22;344889;28;1121;-71
2022/04/12 00:30:58;;;;;;;316.05;95.45;;;;;;;6.77;56.68;100148.53;342181;28;838;-71
2022/04/12 00:31:09;;;;;;;318.20;96.90;;;;;;;6.72;56.60;100148.59;344970;28;860;-71
2022/04/12 00:31:19;;;;;;;316.45;96.93;;;;;;;6.74;56.98;100153.78;342355;28;1192;-72
2022/04/12 00:31:30;;;;;;;312.63;95.00;;;;;;;6.77;56.75;100152.00;341279;28;1079;-71
2022/04/12 00:31:41;;;;;;;311.10;93.50;;;;;;;6.79;56.67;100151.97;340842;28;943;-71
2022/04/12 00:31:52;;;;;;;312.30;95.10;;;;;;;6.78;56.68;100151.09;340786;28;860;-71
2022/04/12 00:32:02;;;;;;;313.70;96.25;;;;;;;6.77;56.65;100154.59;340392;28;1711;-71
2022/04/12 00:32:12;;;;;;;315.07;97.87;;;;;;;6.78;57.05;100145.91;339577;29;1195;-71
2022/04/12 00:32:23;;;;;;;314.35;96.88;;;;;;;6.79;56.42;100149.38;341869;28;1354;-71
2022/04/12 00:32:33;;;;;;;315.70;97.40;;;;;;;6.82;56.95;100152.78;342927;28;940;-71
2022/04/12 00:32:44;;;;;;;313.52;95.38;;;;;;;6.84;56.98;100145.81;340849;28;1236;-71
2022/04/12 00:32:54;;;;;;;315.93;95.90;;;;;;;6.86;57.10;100151.84;340721;28;804;-71
2022/04/12 00:33:05;;;;;;;313.50;93.85;;;;;;;6.87;56.61;100150.09;342297;28;1384;-71
2022/04/12 00:33:15;;;;;;;313.57;93.80;;;;;;;6.85;56.52;100149.25;346330;28;1207;-71
2022/04/12 00:33:26;;;;;;;311.45;93.30;;;;;;;6.80;56.78;100151.09;339889;28;2041;-71
2022/04/12 00:33:36;;;;;;;312.70;95.23;;;;;;;6.76;56.56;100141.63;342307;28;1014;-71
2022/04/12 00:33:46;;;;;;;313.63;96.22;;;;;;;6.73;56.56;100147.72;342924;28;1218;-71
2022/04/12 00:33:57;;;;;;;311.73;93.80;;;;;;;6.71;56.92;100144.28;339684;28;1545;-71
2022/04/12 00:34:07;;;;;;;312.13;93.63;;;;;;;6.71;56.69;100149.50;338900;28;1949;-71
2022/04/12 00:34:17;;;;;;;315.73;97.07;;;;;;;6.74;57.04;100152.03;338520;28;1289;-71
2022/04/12 00:34:28;;;;;;;318.20;99.75;;;;;;;6.75;56.98;100145.94;338559;29;1109;-71
2022/04/12 00:34:38;;;;;;;317.97;99.53;;;;;;;6.77;57.27;100148.53;341982;28;1353;-72
2022/04/12 00:34:49;;;;;;;316.03;97.77;;;;;;;6.79;56.70;100150.22;342711;28;1671;-71
2022/04/12 00:34:59;;;;;;;315.50;96.78;;;;;;;6.77;56.95;100133.78;344547;28;1397;-71
2022/04/12 00:35:10;;;;;;;314.95;96.07;;;;;;;6.83;57.08;100146.69;344844;28;1198;-71
2022/04/12 00:35:21;;;;;;;312.53;94.13;;;;;;;6.84;57.25;100143.19;342032;28;1316;-71
2022/04/12 00:35:31;;;;;;;312.48;92.68;;;;;;;6.82;56.75;100139.75;339419;29;2376;-71
2022/04/12 00:35:41;;;;;;;313.10;93.57;;;;;;;6.82;56.73;100142.38;343452;28;1296;-71
2022/04/12 00:35:53;;;;;;;315.67;95.43;;;;;;;6.83;56.96;100146.69;344908;28;923;-71
2022/04/12 00:36:06;;;;;;;316.70;96.63;;;;;;;6.86;56.87;100148.38;343564;28;1274;-71
2022/04/12 00:36:17;;;;;;;314.95;94.93;;;;;;;6.84;57.09;100134.53;342172;28;1307;-72
2022/04/12 00:36:27;;;;;;;314.97;94.70;;;;;;;6.82;56.80;100139.75;339462;29;1288;-71
2022/04/12 00:36:37;;;;;;;316.00;95.63;;;;;;;6.82;57.19;100144.97;343299;28;1316;-71
2022/04/12 00:36:48;;;;;;;317.47;96.73;;;;;;;6.84;57.23;100140.59;344267;28;1239;-72
2022/04/12 00:36:58;;;;;;;315.55;95.50;;;;;;;6.86;56.89;100137.97;343291;28;1129;-71
2022/04/12 00:37:08;;;;;;;314.53;95.43;;;;;;;6.87;57.16;100140.53;340557;28;1707;-71
2022/04/12 00:37:19;;;;;;;313.97;95.23;;;;;;;6.88;57.15;100142.25;338182;29;1367;-71
2022/04/12 00:37:29;;;;;;;313.07;95.87;;;;;;;6.88;57.06;100139.66;340706;28;1911;-71
2022/04/12 00:37:40;;;;;;;311.67;94.73;;;;;;;6.87;57.21;100143.16;343259;28;1821;-71
2022/04/12 00:37:50;;;;;;;311.60;94.97;;;;;;;6.81;57.15;100145.84;342098;28;1014;-71
2022/04/12 00:38:01;;;;;;;314.30;96.23;;;;;;;6.79;56.82;100139.81;340649;28;1287;-71
2022/04/12 00:38:23;;;;;;;316.77;97.45;;;;;;;6.76;57.12;100144.22;342175;28;861;-72
2022/04/12 00:38:35;;;;;;;311.38;93.95;;;;;;;6.69;57.02;100143.44;343520;28;746;-72
2022/04/12 00:38:46;;;;;;;312.50;94.15;;;;;;;6.68;56.99;100144.34;341180;28;1131;-71
2022/04/12 00:38:56;;;;;;;314.33;95.27;;;;;;;6.68;56.93;100144.34;340923;28;1842;-71
2022/04/12 00:39:07;;;;;;;316.48;98.38;;;;;;;6.68;56.86;100150.41;342504;28;1383;-71
2022/04/12 00:39:17;;;;;;;316.13;98.87;;;;;;;6.68;56.94;100140.00;341781;28;1045;-71
2022/04/12 00:39:28;;;;;;;317.02;99.97;;;;;;;6.71;57.14;100138.22;341275;28;868;-71
2022/04/12 00:39:38;;;;;;;316.47;97.60;;;;;;;6.70;57.45;100141.72;340339;28;2249;-71
2022/04/12 00:39:48;;;;;;;312.70;94.55;;;;;;;6.66;57.19;100138.31;340806;28;959;-71
2022/04/12 00:39:59;;;;;;;310.97;92.70;;;;;;;6.68;57.29;100141.72;341908;28;1682;-71
2022/04/12 00:40:10;;;;;;;310.92;93.28;;;;;;;6.67;57.14;100142.63;341921;28;2024;-71
2022/04/12 00:40:21;;;;;;;312.67;94.40;;;;;;;6.70;57.45;100147.78;344503;28;1799;-71
2022/04/12 00:40:31;;;;;;;313.33;94.07;;;;;;;6.70;57.34;100147.78;342313;28;742;-71
2022/04/12 00:40:41;;;;;;;311.87;93.00;;;;;;;6.72;57.60;100146.00;342150;28;792;-71
2022/04/12 00:40:53;;;;;;;310.67;91.45;;;;;;;6.67;57.08;100138.28;343291;28;1310;-71
2022/04/12 00:41:05;;;;;;;310.55;91.50;;;;;;;6.66;57.32;100140.91;342859;28;1071;-71
2022/04/12 00:41:15;;;;;;;311.65;91.57;;;;;;;6.67;56.78;100137.41;340550;28;2094;-71
2022/04/12 00:41:35;;;;;;;314.00;93.32;;;;;;;6.67;57.12;100143.47;341997;28;1193;-71
2022/04/12 00:41:45;;;;;;;314.88;95.47;;;;;;;6.65;57.20;100139.19;343560;28;797;-71
2022/04/12 00:41:57;;;;;;;315.00;95.50;;;;;;;6.66;57.27;100141.75;343191;28;1496;-71
2022/04/12 00:42:07;;;;;;;315.10;95.03;;;;;;;6.67;57.33;100142.63;343566;28;1580;-71
2022/04/12 00:42:18;;;;;;;315.15;96.25;;;;;;;6.69;56.88;100130.44;341974;28;1216;-71
2022/04/12 00:42:28;;;;;;;316.43;97.60;;;;;;;6.66;56.99;100135.69;343565;28;803;-71
2022/04/12 00:42:39;;;;;;;316.35;97.35;;;;;;;6.62;56.95;100142.69;343637;28;1376;-71
2022/04/12 00:42:49;;;;;;;314.33;95.57;;;;;;;6.60;56.97;100135.78;342436;28;2161;-71
2022/04/12 00:43:02;;;;;;;314.45;94.65;;;;;;;6.60;57.13;100151.41;342127;28;873;-71
2022/04/12 00:43:13;;;;;;;314.08;94.22;;;;;;;6.61;56.86;100145.31;343931;28;2289;-71
2022/04/12 00:43:26;;;;;;;313.70;93.15;;;;;;;6.64;57.11;100140.06;343520;28;1239;-71
2022/04/12 00:43:37;;;;;;;311.38;91.82;;;;;;;6.68;57.14;100139.13;342836;28;1679;-70
2022/04/12 00:43:48;;;;;;;311.65;92.60;;;;;;;6.70;57.20;100142.56;344224;28;2282;-71
2022/04/12 00:43:58;;;;;;;313.05;94.72;;;;;;;6.71;57.02;100143.44;343475;28;1052;-71
2022/04/12 00:44:09;;;;;;;314.47;97.30;;;;;;;6.68;56.98;100142.59;340211;28;1374;-71
2022/04/12 00:44:19;;;;;;;315.15;98.45;;;;;;;6.68;57.26;100140.00;343390;28;737;-71
2022/04/12 00:44:29;;;;;;;314.63;98.67;;;;;;;6.70;57.05;100147.78;342642;28;1340;-71
2022/04/12 00:44:40;;;;;;;313.48;96.05;;;;;;;6.69;57.11;100140.84;344263;28;1447;-71
2022/04/12 00:44:50;;;;;;;312.77;95.60;;;;;;;6.69;57.33;100146.06;344989;28;1096;-71
2022/04/12 00:45:01;;;;;;;313.88;95.47;;;;;;;6.69;57.22;100146.06;341828;28;1426;-71
2022/04/12 00:45:11;;;;;;;316.00;96.07;;;;;;;6.69;56.97;100140.84;342027;28;937;-71
2022/04/12 00:45:21;;;;;;;317.95;96.85;;;;;;;6.70;56.97;100142.56;339243;29;1792;-71
2022/04/12 00:45:32;;;;;;;316.43;97.13;;;;;;;6.70;56.98;100147.78;340910;28;901;-71
2022/04/12 00:45:42;;;;;;;319.75;96.95;;;;;;;6.70;57.15;100146.91;342022;28;1341;-71
2022/04/12 00:45:53;;;;;;;318.43;95.43;;;;;;;6.71;56.96;100148.63;341962;28;1273;-71
2022/04/12 00:46:03;;;;;;;318.67;93.78;;;;;;;6.71;57.01;100146.03;341770;28;1438;-71
2022/04/12 00:46:14;;;;;;;313.30;92.93;;;;;;;6.71;57.08;100143.44;339362;29;1993;-71
2022/04/12 00:46:24;;;;;;;314.33;92.75;;;;;;;6.73;57.22;100142.53;342256;28;823;-71
2022/04/12 00:46:35;;;;;;;313.73;92.83;;;;;;;6.69;57.26;100148.66;341943;28;1181;-71
2022/04/12 00:46:46;;;;;;;314.90;94.22;;;;;;;6.63;57.14;100140.94;345016;28;1665;-71
2022/04/12 00:46:57;;;;;;;313.63;94.00;;;;;;;6.61;57.09;100143.56;341790;28;1053;-71
2022/04/12 00:47:07;;;;;;;312.85;94.57;;;;;;;6.63;57.62;100140.94;342164;28;884;-71
2022/04/12 00:47:17;;;;;;;311.30;93.47;;;;;;;6.66;57.78;100148.69;341920;28;1221;-72
2022/04/12 00:47:28;;;;;;;312.30;94.65;;;;;;;6.67;57.22;100142.63;342202;28;1646;-71
2022/04/12 00:47:39;;;;;;;312.90;94.83;;;;;;;6.69;57.03;100140.84;342200;28;904;-71
2022/04/12 00:47:49;;;;;;;313.85;95.32;;;;;;;6.71;57.09;100144.28;339325;28;1466;-71
2022/04/12 00:48:00;;;;;;;313.05;94.38;;;;;;;6.72;57.45;100139.94;340697;28;806;-71
2022/04/12 00:48:10;;;;;;;312.07;92.83;;;;;;;6.70;57.04;100146.91;342169;28;888;-72
2022/04/12 00:48:21;;;;;;;313.27;92.38;;;;;;;6.65;56.96;100140.03;343561;28;1176;-71
2022/04/12 00:48:32;;;;;;;315.83;93.43;;;;;;;6.66;57.02;100146.09;344292;28;1954;-71
2022/04/12 00:48:43;;;;;;;316.05;94.45;;;;;;;6.65;57.28;100140.03;344547;28;1371;-71
2022/04/12 00:48:53;;;;;;;315.77;95.93;;;;;;;6.67;57.25;100145.22;343758;28;900;-71
2022/04/12 00:49:04;;;;;;;314.93;96.27;;;;;;;6.67;57.31;100142.63;340616;28;853;-72
2022/04/12 00:49:14;;;;;;;315.27;97.45;;;;;;;6.71;57.65;100141.69;340293;28;1724;-71
2022/04/12 00:49:25;;;;;;;314.93;97.20;;;;;;;6.71;57.33;100144.28;340710;28;790;-71
2022/04/12 00:49:35;;;;;;;313.80;96.00;;;;;;;6.73;57.33;100139.06;342542;28;900;-71
2022/04/12 00:49:45;;;;;;;312.93;94.07;;;;;;;6.71;57.46;100139.09;346131;28;1212;-71
2022/04/12 00:49:56;;;;;;;311.73;92.90;;;;;;;6.72;57.17;100140.81;342949;28;1592;-71
2022/04/12 00:50:07;;;;;;;312.10;92.83;;;;;;;6.70;57.37;100147.78;343383;28;2166;-71
2022/04/12 00:50:18;;;;;;;311.92;93.60;;;;;;;6.69;56.80;100140.84;344750;28;1105;-71
2022/04/12 00:50:28;;;;;;;311.37;93.80;;;;;;;6.64;57.06;100140.94;343556;28;967;-72
2022/04/12 00:50:39;;;;;;;312.10;94.70;;;;;;;6.65;57.13;100145.25;342008;28;1256;-71
2022/04/12 00:50:50;;;;;;;312.42;94.63;;;;;;;6.64;57.04;100137.47;339411;29;1024;-71
2022/04/12 00:51:00;;;;;;;314.75;95.47;;;;;;;6.65;57.20;100144.38;339203;29;1583;-71
2022/04/12 00:51:11;;;;;;;314.70;95.30;;;;;;;6.67;57.15;100142.63;342941;28;2243;-71
2022/04/12 00:51:22;;;;;;;313.47;95.07;;;;;;;6.68;57.27;100141.72;341877;28;1507;-71
2022/04/12 00:51:32;;;;;;;313.60;94.70;;;;;;;6.69;57.59;100146.06;343491;28;856;-71
2022/04/12 00:51:43;;;;;;;316.73;95.73;;;;;;;6.66;57.12;100140.91;342260;28;1328;-71
2022/04/12 00:51:53;;;;;;;318.10;96.40;;;;;;;6.63;57.01;100141.81;342194;28;845;-71
2022/04/12 00:52:04;;;;;;;317.13;96.97;;;;;;;6.63;57.32;100146.16;340649;28;1455;-71